Time;durP1;ratioP1;P1;durP2;ratioP2;P2;SDS_P1;SDS_P2;PMS_P1;PMS_P2;Temp;Humidity;BMP_temperature;BMP_pressure;BME280_temperature;BME280_humidity;BME280_pressure;Samples;Min_cycle;Max_cycle;Signal;HPM_P1;HPM_P2
2023/11/20 00:02:10;;;;;;;2.87;1.10;;;22.40;70.20;;;;;;5053143;28;20449;-86
2023/11/20 00:04:37;;;;;;;1.30;0.97;;;22.40;69.30;;;;;;5053243;28;20924;-86
2023/11/20 00:07:05;;;;;;;1.20;0.93;;;22.40;69.30;;;;;;5053155;28;20444;-86
2023/11/20 00:09:32;;;;;;;1.20;0.80;;;22.40;69.30;;;;;;5053108;28;20473;-94
2023/11/20 00:11:59;;;;;;;1.10;0.70;;;22.40;69.40;;;;;;5053036;28;20484;-86
2023/11/20 00:14:26;;;;;;;1.50;1.00;;;22.40;69.40;;;;;;5052944;28;20548;-87
2023/11/20 00:16:54;;;;;;;1.10;0.80;;;22.40;70.50;;;;;;5052527;28;20536;-86
2023/11/20 00:19:22;;;;;;;2.30;0.97;;;22.40;69.50;;;;;;5052721;28;20982;-86
2023/11/20 00:21:48;;;;;;;1.30;0.90;;;22.40;69.40;;;;;;5053341;28;20858;-94
2023/11/20 00:24:15;;;;;;;1.37;0.90;;;22.40;69.50;;;;;;5052896;28;20438;-86
2023/11/20 00:26:42;;;;;;;1.20;0.90;;;22.40;69.50;;;;;;5053140;28;20468;-87
2023/11/20 00:29:09;;;;;;;1.53;0.80;;;22.40;69.50;;;;;;5053406;28;20517;-86
2023/11/20 00:31:36;;;;;;;1.40;0.90;;;22.40;69.60;;;;;;5053202;28;20888;-93
2023/11/20 00:34:05;;;;;;;1.30;0.90;;;22.30;69.40;;;;;;5052966;28;20441;-94
2023/11/20 00:36:31;;;;;;;1.20;0.80;;;22.30;70.30;;;;;;5052862;28;20434;-86
2023/11/20 00:38:58;;;;;;;1.30;1.00;;;22.30;69.50;;;;;;5052811;28;20511;-86
2023/11/20 00:41:27;;;;;;;0.90;0.60;;;22.30;69.50;;;;;;5052975;28;20532;-86
2023/11/20 00:43:54;;;;;;;1.30;0.87;;;22.30;69.50;;;;;;5052611;28;20445;-86
2023/11/20 00:46:20;;;;;;;1.10;0.80;;;22.30;69.50;;;;;;5052747;28;20947;-86
2023/11/20 00:48:47;;;;;;;1.53;0.90;;;22.30;69.50;;;;;;5052845;28;20456;-86
2023/11/20 00:51:15;;;;;;;1.23;0.90;;;22.30;69.50;;;;;;5052838;28;20429;-86
2023/11/20 00:53:42;;;;;;;1.20;0.80;;;22.30;69.50;;;;;;5052796;28;20453;-86
2023/11/20 00:56:09;;;;;;;1.20;0.80;;;22.30;69.60;;;;;;5052576;28;20437;-86
2023/11/20 00:58:36;;;;;;;1.20;0.90;;;22.30;69.60;;;;;;5052762;28;20921;-86
2023/11/20 01:01:03;;;;;;;1.10;0.70;;;22.30;69.50;;;;;;5052731;28;20437;-86
2023/11/20 01:03:29;;;;;;;1.47;0.80;;;22.30;69.60;;;;;;5052748;28;20928;-86
2023/11/20 01:05:56;;;;;;;1.30;0.87;;;22.30;69.60;;;;;;5052689;28;20437;-86
2023/11/20 01:08:24;;;;;;;1.33;0.90;;;22.20;69.50;;;;;;5052756;28;20429;-86
2023/11/20 01:10:51;;;;;;;2.33;1.20;;;22.30;69.70;;;;;;5054244;28;20924;-86
2023/11/20 01:13:18;;;;;;;1.40;0.90;;;22.40;69.80;;;;;;5056459;28;20840;-86
2023/11/20 01:15:45;;;;;;;2.40;1.00;;;22.20;69.60;;;;;;5056115;28;20473;-86
2023/11/20 01:18:12;;;;;;;1.50;1.00;;;22.20;69.50;;;;;;5056331;28;20468;-86
2023/11/20 01:20:41;;;;;;;1.87;1.10;;;22.20;69.60;;;;;;5055795;28;20468;-86
2023/11/20 01:23:08;;;;;;;1.20;1.00;;;22.20;69.60;;;;;;5056015;28;20441;-86
2023/11/20 01:25:36;;;;;;;2.23;1.03;;;22.20;69.60;;;;;;5055978;28;20957;-86
2023/11/20 01:28:03;;;;;;;1.20;0.80;;;22.20;69.60;;;;;;5056085;28;20788;-86
2023/11/20 01:30:30;;;;;;;1.60;0.93;;;22.20;69.60;;;;;;5056187;28;20440;-86
2023/11/20 01:32:56;;;;;;;1.50;0.90;;;22.20;69.60;;;;;;5055659;28;20491;-86
2023/11/20 01:35:23;;;;;;;1.37;0.80;;;22.20;69.70;;;;;;5056081;28;20878;-86
2023/11/20 01:37:50;;;;;;;1.47;1.00;;;22.20;69.70;;;;;;5056066;28;20555;-86
2023/11/20 01:40:17;;;;;;;1.30;0.83;;;22.20;69.70;;;;;;5055521;28;20436;-86
2023/11/20 01:42:45;;;;;;;1.10;1.00;;;22.20;69.80;;;;;;5055697;28;20853;-86
2023/11/20 01:45:12;;;;;;;1.20;0.80;;;22.10;69.60;;;;;;5055688;28;20932;-86
2023/11/20 01:47:39;;;;;;;1.83;0.90;;;22.20;69.80;;;;;;5055482;28;20469;-86
2023/11/20 01:50:10;;;;;;;3.20;0.90;;;22.10;69.70;;;;;;5055643;28;20465;-86
2023/11/20 01:52:42;;;;;;;1.10;0.80;;;22.20;69.80;;;;;;5055481;28;20580;-86
2023/11/20 01:55:10;;;;;;;1.87;1.10;;;22.10;69.70;;;;;;5055560;28;20933;-94
2023/11/20 01:57:39;;;;;;;1.83;0.90;;;22.10;69.70;;;;;;5055471;28;20536;-86
2023/11/20 02:00:09;;;;;;;1.47;0.93;;;22.10;69.80;;;;;;5055218;28;20804;-86
2023/11/20 02:02:37;;;;;;;1.33;0.80;;;22.10;69.90;;;;;;5055535;28;20448;-86
2023/11/20 02:05:05;;;;;;;1.03;0.80;;;22.10;69.90;;;;;;5055390;28;20442;-93
2023/11/20 02:07:32;;;;;;;1.77;1.00;;;22.10;69.90;;;;;;5055100;28;20444;-86
2023/11/20 02:09:59;;;;;;;1.20;0.70;;;22.10;69.80;;;;;;5055324;28;20549;-86
2023/11/20 02:12:26;;;;;;;1.77;0.80;;;22.10;69.80;;;;;;5055322;28;20480;-86
2023/11/20 02:14:53;;;;;;;1.10;0.80;;;22.10;69.80;;;;;;5055139;28;20481;-86
2023/11/20 02:17:21;;;;;;;3.17;1.00;;;22.20;69.80;;;;;;5055097;28;20440;-86
2023/11/20 02:19:48;;;;;;;2.20;1.20;;;22.10;69.60;;;;;;5054884;28;20813;-86
2023/11/20 02:22:15;;;;;;;1.80;1.30;;;22.20;69.80;;;;;;5054579;28;20438;-86
2023/11/20 02:24:43;;;;;;;1.60;0.90;;;22.10;69.60;;;;;;5054999;28;20442;-86
2023/11/20 02:27:25;;;;;;;1.60;1.00;;;22.20;69.80;;;;;;5055208;28;20448;-86
2023/11/20 02:29:54;;;;;;;2.40;1.00;;;22.20;69.80;;;;;;5055014;28;20440;-86
2023/11/20 02:32:22;;;;;;;1.00;0.70;;;22.20;69.70;;;;;;5054791;28;20485;-86
2023/11/20 02:34:51;;;;;;;1.40;1.00;;;22.20;69.70;;;;;;5054814;28;20795;-86
2023/11/20 02:37:17;;;;;;;1.30;0.97;;;22.20;69.70;;;;;;5054574;28;20437;-86
2023/11/20 02:39:48;;;;;;;1.00;0.70;;;22.20;69.60;;;;;;5054485;28;20438;-86
2023/11/20 02:42:15;;;;;;;1.80;1.17;;;22.20;69.60;;;;;;5054716;28;20445;-86
2023/11/20 02:44:43;;;;;;;1.20;0.90;;;22.20;69.50;;;;;;5054817;28;20434;-86
2023/11/20 02:47:11;;;;;;;1.73;1.10;;;22.30;69.60;;;;;;5054569;28;20540;-86
2023/11/20 02:49:38;;;;;;;1.20;0.97;;;22.30;69.60;;;;;;5054521;28;20979;-86
2023/11/20 02:52:06;;;;;;;1.43;0.87;;;22.30;69.50;;;;;;5054445;28;20796;-86
2023/11/20 02:54:33;;;;;;;1.63;0.93;;;22.30;69.50;;;;;;5054432;28;20516;-86
2023/11/20 02:57:00;;;;;;;1.43;1.00;;;22.30;69.50;;;;;;5054306;28;20437;-86
2023/11/20 02:59:28;;;;;;;1.30;0.80;;;22.30;69.50;;;;;;5054501;28;20529;-94
2023/11/20 03:01:55;;;;;;;1.60;0.80;;;22.20;69.40;;;;;;5054333;28;20928;-86
2023/11/20 03:04:23;;;;;;;1.13;0.80;;;22.30;69.60;;;;;;5054556;28;20441;-86
2023/11/20 03:06:50;;;;;;;1.20;0.80;;;22.30;69.60;;;;;;5054164;28;20850;-93
2023/11/20 03:09:18;;;;;;;1.10;0.70;;;22.20;69.40;;;;;;5054076;28;20440;-86
2023/11/20 03:11:45;;;;;;;1.20;0.80;;;22.20;69.50;;;;;;5054079;28;20433;-86
2023/11/20 03:14:12;;;;;;;1.57;0.90;;;22.20;69.50;;;;;;5053932;28;20520;-86
2023/11/20 03:16:39;;;;;;;2.07;0.90;;;22.20;69.50;;;;;;5053873;28;20434;-86
2023/11/20 03:19:06;;;;;;;1.20;0.83;;;22.20;69.50;;;;;;5053956;28;20458;-86
2023/11/20 03:21:36;;;;;;;1.63;0.83;;;22.30;69.60;;;;;;5054028;28;20460;-86
2023/11/20 03:24:03;;;;;;;1.93;1.00;;;22.20;69.50;;;;;;5053933;28;20448;-86
2023/11/20 03:26:31;;;;;;;1.20;1.00;;;22.20;69.40;;;;;;5053759;28;20437;-86
2023/11/20 03:28:57;;;;;;;1.10;0.90;;;22.20;70.30;;;;;;5053885;28;20433;-86
2023/11/20 03:31:24;;;;;;;1.20;0.80;;;22.30;69.50;;;;;;5053757;28;20932;-86
2023/11/20 03:33:51;;;;;;;1.23;0.90;;;22.30;69.50;;;;;;5052573;28;20485;-86
2023/11/20 03:36:20;;;;;;;1.10;0.70;;;22.30;69.50;;;;;;5053482;28;20532;-86
2023/11/20 03:38:48;;;;;;;2.40;0.80;;;22.30;69.50;;;;;;5053417;28;20472;-86
2023/11/20 03:41:15;;;;;;;1.10;0.80;;;22.20;69.50;;;;;;5053252;28;20437;-86
2023/11/20 03:43:42;;;;;;;1.00;0.80;;;22.30;69.50;;;;;;5053523;28;20512;-86
2023/11/20 03:46:08;;;;;;;1.30;0.90;;;22.30;69.60;;;;;;5053430;28;20441;-86
2023/11/20 03:48:35;;;;;;;1.13;1.03;;;22.40;69.70;;;;;;5053422;28;20469;-93
2023/11/20 03:51:04;;;;;;;2.50;0.80;;;22.30;69.50;;;;;;5053223;28;20448;-86
2023/11/20 03:53:31;;;;;;;1.10;0.90;;;22.30;69.50;;;;;;5052009;28;20547;-86
2023/11/20 03:55:59;;;;;;;1.33;0.87;;;22.30;69.50;;;;;;5052303;28;20440;-94
2023/11/20 03:58:27;;;;;;;1.30;0.83;;;22.30;69.50;;;;;;5052820;28;20451;-94
2023/11/20 04:00:53;;;;;;;1.10;0.77;;;22.30;69.50;;;;;;5053027;28;20445;-86
2023/11/20 04:03:20;;;;;;;1.40;1.10;;;22.30;69.50;;;;;;5053196;28;20445;-86
2023/11/20 04:05:48;;;;;;;1.00;0.70;;;22.30;69.50;;;;;;5052966;28;20516;-86
2023/11/20 04:08:15;;;;;;;1.10;0.87;;;22.30;69.50;;;;;;5052911;28;20456;-86
2023/11/20 04:10:42;;;;;;;1.10;0.90;;;22.30;69.50;;;;;;5053351;28;20429;-94
2023/11/20 04:13:09;;;;;;;1.40;0.87;;;22.30;69.50;;;;;;5053002;28;20587;-86
2023/11/20 04:15:35;;;;;;;1.60;0.90;;;22.30;69.50;;;;;;5052851;28;20469;-87
2023/11/20 04:18:02;;;;;;;1.10;0.90;;;22.30;69.50;;;;;;5052111;28;20441;-86
2023/11/20 04:20:29;;;;;;;2.03;1.13;;;22.30;69.60;;;;;;5053006;28;20505;-94
2023/11/20 04:22:56;;;;;;;1.50;0.97;;;22.20;69.40;;;;;;5053042;28;20445;-86
2023/11/20 04:25:23;;;;;;;1.10;0.90;;;22.20;69.50;;;;;;5052919;28;20433;-92
2023/11/20 04:27:52;;;;;;;1.10;0.67;;;22.40;69.70;;;;;;5053045;28;20430;-86
2023/11/20 04:30:21;;;;;;;1.30;0.87;;;22.20;69.50;;;;;;5052811;28;20495;-86
2023/11/20 04:32:47;;;;;;;1.20;0.80;;;22.20;69.60;;;;;;5052616;28;20481;-93
2023/11/20 04:35:14;;;;;;;1.10;0.80;;;22.20;69.50;;;;;;5052784;28;20438;-86
2023/11/20 04:37:41;;;;;;;1.60;0.90;;;22.20;69.50;;;;;;5052860;28;20445;-87
2023/11/20 04:40:08;;;;;;;1.30;1.00;;;22.30;69.70;;;;;;5052712;28;20817;-86
2023/11/20 04:42:35;;;;;;;1.40;1.00;;;22.20;69.50;;;;;;5052689;28;20536;-86
2023/11/20 04:45:02;;;;;;;1.20;0.80;;;22.20;69.60;;;;;;5053265;28;20802;-86
2023/11/20 04:47:31;;;;;;;1.20;0.80;;;22.20;69.50;;;;;;5056723;28;20495;-94
2023/11/20 04:49:58;;;;;;;1.30;0.80;;;22.20;69.50;;;;;;5056722;28;20822;-86
2023/11/20 04:52:25;;;;;;;1.20;0.80;;;22.40;70.60;;;;;;5056750;28;20460;-86
2023/11/20 04:54:54;;;;;;;1.20;0.90;;;22.20;69.50;;;;;;5056771;28;20493;-86
2023/11/20 04:57:21;;;;;;;1.40;1.00;;;22.20;69.50;;;;;;5056691;28;20448;-94
2023/11/20 04:59:48;;;;;;;1.10;0.70;;;22.20;69.50;;;;;;5056591;28;20441;-86
2023/11/20 05:02:15;;;;;;;1.10;0.83;;;22.30;69.60;;;;;;5056697;28;20828;-86
2023/11/20 05:04:44;;;;;;;1.50;1.00;;;22.20;69.50;;;;;;5056459;28;20437;-86
2023/11/20 05:07:11;;;;;;;1.10;0.80;;;22.30;69.70;;;;;;5056485;28;20445;-86
2023/11/20 05:09:38;;;;;;;1.93;0.80;;;22.30;69.60;;;;;;5056564;28;20445;-86
2023/11/20 05:12:07;;;;;;;1.50;0.97;;;22.30;69.60;;;;;;5056412;28;20443;-86
2023/11/20 05:14:34;;;;;;;1.27;1.00;;;22.30;69.50;;;;;;5056252;28;20583;-86
2023/11/20 05:17:01;;;;;;;1.50;0.87;;;22.30;69.50;;;;;;5056340;28;20448;-86
2023/11/20 05:19:27;;;;;;;1.17;0.80;;;22.30;69.50;;;;;;5056330;28;20459;-86
2023/11/20 05:21:55;;;;;;;1.10;0.80;;;22.30;69.50;;;;;;5056316;28;20441;-85
2023/11/20 05:24:23;;;;;;;1.00;0.70;;;22.30;69.50;;;;;;5056408;28;20441;-86
2023/11/20 05:26:52;;;;;;;1.43;0.90;;;22.30;69.40;;;;;;5056109;28;20538;-86
2023/11/20 05:29:19;;;;;;;1.40;0.80;;;22.30;69.40;;;;;;5056273;28;20532;-86
2023/11/20 05:31:45;;;;;;;1.00;0.87;;;22.30;70.20;;;;;;5056285;28;20520;-94
2023/11/20 05:34:12;;;;;;;1.83;1.00;;;22.40;69.40;;;;;;5055836;28;20487;-86
2023/11/20 05:36:39;;;;;;;1.00;0.83;;;22.30;69.30;;;;;;5055797;28;20477;-86
2023/11/20 05:39:08;;;;;;;1.70;1.00;;;22.40;69.40;;;;;;5056053;28;20434;-86
2023/11/20 05:41:35;;;;;;;1.40;1.20;;;22.40;69.30;;;;;;5055558;28;20439;-86
2023/11/20 05:44:02;;;;;;;1.27;0.90;;;22.40;69.30;;;;;;5055895;28;20436;-86
2023/11/20 05:46:28;;;;;;;2.20;1.23;;;22.40;69.30;;;;;;5055509;28;20475;-86
2023/11/20 05:48:55;;;;;;;1.10;0.83;;;22.50;69.40;;;;;;5055408;28;20463;-86
2023/11/20 05:51:22;;;;;;;0.97;0.67;;;22.40;69.20;;;;;;5055516;28;20433;-86
2023/11/20 05:53:49;;;;;;;1.67;1.17;;;22.40;69.20;;;;;;5055504;28;20576;-86
2023/11/20 05:56:17;;;;;;;1.20;1.00;;;22.40;69.20;;;;;;5055142;28;20437;-86
2023/11/20 05:58:44;;;;;;;1.87;0.90;;;22.40;69.20;;;;;;5054900;28;20438;-86
2023/11/20 06:01:12;;;;;;;1.43;0.90;;;22.40;69.20;;;;;;5055472;28;20437;-86
2023/11/20 06:03:38;;;;;;;1.40;0.93;;;22.40;69.20;;;;;;5055545;28;20491;-86
2023/11/20 06:06:06;;;;;;;1.30;1.00;;;22.40;69.10;;;;;;5055479;28;20533;-86
2023/11/20 06:08:33;;;;;;;1.17;0.90;;;22.40;69.20;;;;;;5055327;28;20441;-86
2023/11/20 06:11:00;;;;;;;1.50;0.90;;;22.40;69.20;;;;;;5055332;28;20433;-87
2023/11/20 06:13:28;;;;;;;1.03;0.80;;;22.40;69.10;;;;;;5055172;28;20481;-92
2023/11/20 06:15:55;;;;;;;1.20;0.90;;;22.40;69.10;;;;;;5055044;28;20829;-86
2023/11/20 06:18:22;;;;;;;1.40;1.00;;;22.40;69.20;;;;;;5055145;28;20442;-86
2023/11/20 06:20:49;;;;;;;1.37;0.80;;;22.40;69.20;;;;;;5055147;28;20440;-86
2023/11/20 06:23:15;;;;;;;1.03;0.90;;;22.40;69.10;;;;;;5055162;28;20442;-86
2023/11/20 06:25:42;;;;;;;1.37;0.80;;;22.40;69.10;;;;;;5055341;28;20434;-87
2023/11/20 06:28:09;;;;;;;1.60;1.03;;;22.40;69.20;;;;;;5055152;28;20929;-92
2023/11/20 06:30:37;;;;;;;1.03;0.77;;;22.40;69.10;;;;;;5054914;28;20445;-86
2023/11/20 06:33:04;;;;;;;1.30;1.00;;;22.50;69.30;;;;;;5054923;28;20794;-86
2023/11/20 06:35:31;;;;;;;1.80;1.00;;;22.50;69.30;;;;;;5055084;28;20468;-86
2023/11/20 06:37:58;;;;;;;1.03;0.80;;;22.50;69.20;;;;;;5054950;28;20434;-86
2023/11/20 06:40:25;;;;;;;2.23;0.90;;;22.50;69.20;;;;;;5054903;28;20441;-86
2023/11/20 06:42:52;;;;;;;1.23;0.87;;;22.50;69.20;;;;;;5055045;28;20788;-94
2023/11/20 06:45:18;;;;;;;1.10;0.80;;;22.50;69.20;;;;;;5054717;28;20468;-86
2023/11/20 06:47:47;;;;;;;1.70;1.00;;;22.50;69.10;;;;;;5054888;28;20436;-86
2023/11/20 06:50:14;;;;;;;1.43;0.83;;;22.50;69.20;;;;;;5054584;28;20460;-86
2023/11/20 06:52:42;;;;;;;1.00;0.70;;;22.50;69.20;;;;;;5054331;28;20430;-87
2023/11/20 06:55:09;;;;;;;1.47;0.80;;;22.50;69.10;;;;;;5054566;28;20480;-86
2023/11/20 06:57:36;;;;;;;2.43;1.17;;;22.50;69.20;;;;;;5053994;28;20890;-93
2023/11/20 07:00:05;;;;;;;1.30;0.90;;;22.50;69.20;;;;;;5053534;28;20468;-87
2023/11/20 07:02:32;;;;;;;1.00;0.77;;;22.50;69.00;;;;;;5053270;28;20441;-87
2023/11/20 07:05:01;;;;;;;1.73;1.00;;;22.50;69.10;;;;;;5055407;28;20488;-93
2023/11/20 07:07:28;;;;;;;1.40;1.00;;;22.50;68.10;;;;;;5050106;28;20461;-87
2023/11/20 07:09:55;;;;;;;1.43;0.80;;;22.50;67.70;;;;;;5052467;28;20452;-86
2023/11/20 07:12:22;;;;;;;1.30;1.00;;;22.50;68.30;;;;;;5053769;28;20798;-87
2023/11/20 07:14:49;;;;;;;3.23;1.00;;;22.50;68.90;;;;;;5058670;28;20492;-88
2023/11/20 07:17:16;;;;;;;1.10;0.80;;;22.60;69.30;;;;;;5073681;28;20441;-86
2023/11/20 07:19:42;;;;;;;2.20;0.90;;;22.60;69.20;;;;;;5072611;28;20460;-87
2023/11/20 07:22:10;;;;;;;1.47;0.97;;;22.60;69.20;;;;;;5072060;28;20441;-86
2023/11/20 07:24:37;;;;;;;1.30;0.93;;;22.60;69.40;;;;;;5071874;28;20445;-86
2023/11/20 07:27:05;;;;;;;1.20;0.90;;;22.60;69.30;;;;;;5072126;28;20514;-87
2023/11/20 07:29:32;;;;;;;1.40;1.30;;;22.60;69.40;;;;;;5071935;28;20436;-86
2023/11/20 07:31:59;;;;;;;1.87;1.00;;;22.60;70.30;;;;;;5071667;28;20440;-86
2023/11/20 07:34:26;;;;;;;2.37;1.00;;;22.60;69.40;;;;;;5071535;28;20484;-86
2023/11/20 07:36:55;;;;;;;2.10;0.80;;;22.60;69.50;;;;;;5071470;28;20439;-86
2023/11/20 07:39:24;;;;;;;1.10;0.90;;;22.60;69.50;;;;;;5071956;28;20436;-86
2023/11/20 07:41:51;;;;;;;1.17;0.90;;;22.60;69.50;;;;;;5072123;28;20432;-86
2023/11/20 07:44:18;;;;;;;2.53;1.03;;;22.60;69.60;;;;;;5072816;28;20450;-86
2023/11/20 07:46:45;;;;;;;1.53;0.80;;;22.70;69.80;;;;;;5073404;28;20448;-86
2023/11/20 07:49:11;;;;;;;1.20;0.80;;;22.70;69.80;;;;;;5073172;28;20459;-86
2023/11/20 07:51:38;;;;;;;1.60;1.00;;;22.70;69.80;;;;;;5073468;28;20439;-86
2023/11/20 07:54:07;;;;;;;1.93;1.20;;;22.70;69.30;;;;;;5073765;28;20491;-91
2023/11/20 07:56:36;;;;;;;1.73;1.00;;;22.70;69.70;;;;;;5072275;28;20523;-85
2023/11/20 07:59:03;;;;;;;1.50;1.00;;;22.70;70.00;;;;;;5073303;28;21002;-85
2023/11/20 08:01:30;;;;;;;1.40;1.20;;;22.70;68.90;;;;;;5073324;28;20536;-85
2023/11/20 08:03:57;;;;;;;1.20;0.87;;;22.60;68.60;;;;;;5073450;28;20444;-84
2023/11/20 08:06:23;;;;;;;2.07;1.00;;;22.60;68.50;;;;;;5073403;28;20436;-84
2023/11/20 08:08:50;;;;;;;2.20;0.83;;;22.60;69.00;;;;;;5073493;28;20446;-95
2023/11/20 08:11:17;;;;;;;2.93;1.23;;;22.60;69.70;;;;;;5073778;28;20433;-84
2023/11/20 08:13:46;;;;;;;1.83;0.80;;;22.60;69.90;;;;;;5073498;28;20937;-91
2023/11/20 08:16:13;;;;;;;1.80;1.13;;;22.60;70.00;;;;;;5073370;28;20538;-89
